Time;durP1;ratioP1;P1;durP2;ratioP2;P2;SDS_P1;SDS_P2;PMS_P1;PMS_P2;Temp;Humidity;BMP_temperature;BMP_pressure;BME280_temperature;BME280_humidity;BME280_pressure;Samples;Min_cycle;Max_cycle;Signal;HPM_P1;HPM_P2
2023/06/22 00:01:30;;;;;;;10.10;6.50;;;;;;;;;;5033107;28;20053;-65
2023/06/22 00:04:15;;;;;;;9.13;6.68;;;;;;;;;;5033730;28;20048;-64
2023/06/22 00:07:01;;;;;;;8.50;5.75;;;;;;;;;;5033005;28;20060;-64
2023/06/22 00:09:46;;;;;;;11.43;6.22;;;;;;;;;;5032563;28;20029;-65
2023/06/22 00:12:32;;;;;;;9.52;5.95;;;;;;;;;;5033409;28;20026;-64
2023/06/22 00:15:17;;;;;;;12.10;6.20;;;;;;;;;;5033057;28;20471;-61
2023/06/22 00:18:03;;;;;;;10.85;6.53;;;;;;;;;;5032915;28;20079;-59
2023/06/22 00:20:49;;;;;;;11.40;6.22;;;;;;;;;;5032667;28;20481;-66
2023/06/22 00:23:34;;;;;;;10.80;6.45;;;;;;;;;;5033113;28;20540;-68
2023/06/22 00:26:20;;;;;;;10.52;6.55;;;;;;;;;;5032623;28;20117;-66
2023/06/22 00:29:06;;;;;;;10.32;5.78;;;;;;;;;;5032620;28;20116;-66
2023/06/22 00:31:51;;;;;;;9.32;5.72;;;;;;;;;;5032248;28;20037;-65
2023/06/22 00:34:37;;;;;;;9.15;6.03;;;;;;;;;;5032458;28;20152;-61
2023/06/22 00:37:25;;;;;;;10.82;6.40;;;;;;;;;;5032834;28;20063;-65
2023/06/22 00:40:11;;;;;;;11.13;6.78;;;;;;;;;;5031437;28;20108;-65
2023/06/22 00:42:57;;;;;;;8.75;6.18;;;;;;;;;;5032386;28;20044;-66
2023/06/22 00:45:43;;;;;;;10.55;6.22;;;;;;;;;;5032257;28;20034;-66
2023/06/22 00:48:28;;;;;;;10.63;6.35;;;;;;;;;;5032084;28;20034;-65
2023/06/22 00:51:14;;;;;;;9.73;6.70;;;;;;;;;;5032491;28;20117;-66
2023/06/22 00:54:00;;;;;;;9.73;6.07;;;;;;;;;;5032018;28;20045;-66
2023/06/22 00:56:46;;;;;;;10.32;6.72;;;;;;;;;;5032020;28;20021;-66
2023/06/22 00:59:32;;;;;;;9.63;6.78;;;;;;;;;;5032235;28;20033;-64
2023/06/22 01:02:18;;;;;;;11.82;6.60;;;;;;;;;;5031985;28;20034;-66
2023/06/22 01:05:04;;;;;;;9.75;6.13;;;;;;;;;;5031712;28;20408;-65
2023/06/22 01:07:54;;;;;;;8.32;5.65;;;;;;;;;;5031531;28;20118;-65
2023/06/22 01:10:39;;;;;;;11.55;7.13;;;;;;;;;;5031796;28;20044;-66
2023/06/22 01:13:28;;;;;;;9.30;6.20;;;;;;;;;;5031946;28;20065;-70
2023/06/22 01:16:20;;;;;;;11.75;6.70;;;;;;;;;;5031455;28;20392;-60
2023/06/22 01:19:25;;;;;;;7.97;5.60;;;;;;;;;;5031762;28;20041;-59
2023/06/22 01:22:12;;;;;;;8.35;6.10;;;;;;;;;;5031236;28;20109;-60
2023/06/22 01:25:10;;;;;;;10.95;6.72;;;;;;;;;;5032739;28;20029;-60
2023/06/22 01:28:15;;;;;;;10.77;6.25;;;;;;;;;;5031897;28;20176;-60
2023/06/22 01:31:05;;;;;;;10.43;5.85;;;;;;;;;;5031448;28;20161;-60
2023/06/22 01:33:55;;;;;;;8.07;5.18;;;;;;;;;;5031585;28;20116;-65
2023/06/22 01:36:41;;;;;;;12.30;6.85;;;;;;;;;;5031421;28;20036;-65
2023/06/22 01:39:27;;;;;;;9.65;6.30;;;;;;;;;;5031580;28;20108;-66
2023/06/22 01:42:12;;;;;;;8.50;6.38;;;;;;;;;;5031103;28;20030;-65
2023/06/22 01:44:59;;;;;;;9.73;5.93;;;;;;;;;;5031492;28;20035;-66
2023/06/22 01:47:44;;;;;;;18.05;6.43;;;;;;;;;;5030693;28;20465;-75
2023/06/22 01:50:30;;;;;;;7.68;5.60;;;;;;;;;;5031391;28;20036;-71
2023/06/22 01:53:16;;;;;;;9.07;5.90;;;;;;;;;;5030346;28;20022;-75
2023/06/22 01:56:01;;;;;;;9.20;5.55;;;;;;;;;;5030130;28;20037;-75
2023/06/22 01:58:51;;;;;;;9.82;6.68;;;;;;;;;;5032011;28;20033;-75
2023/06/22 02:01:44;;;;;;;11.73;6.10;;;;;;;;;;5031218;28;20129;-77
2023/06/22 02:04:35;;;;;;;9.75;6.38;;;;;;;;;;5031333;28;20017;-76
2023/06/22 02:07:22;;;;;;;9.55;6.07;;;;;;;;;;5031530;28;20108;-61
2023/06/22 02:10:12;;;;;;;10.35;6.03;;;;;;;;;;5031668;28;20025;-66
2023/06/22 02:12:58;;;;;;;9.35;5.50;;;;;;;;;;5031199;28;20122;-66
2023/06/22 02:15:45;;;;;;;9.93;6.03;;;;;;;;;;5031356;28;20017;-65
2023/06/22 02:18:30;;;;;;;8.68;5.25;;;;;;;;;;5031017;28;20034;-66
2023/06/22 02:21:16;;;;;;;10.20;5.65;;;;;;;;;;5030012;28;20116;-66
2023/06/22 02:24:02;;;;;;;9.80;5.57;;;;;;;;;;5030988;28;20041;-66
2023/06/22 02:26:48;;;;;;;8.13;4.97;;;;;;;;;;5030950;28;20052;-59
2023/06/22 02:29:33;;;;;;;10.90;6.47;;;;;;;;;;5031028;28;20487;-61
2023/06/22 02:32:19;;;;;;;10.23;6.47;;;;;;;;;;5032556;28;20499;-61
2023/06/22 02:35:04;;;;;;;8.82;6.55;;;;;;;;;;5034341;28;20033;-61
2023/06/22 02:37:51;;;;;;;10.18;6.50;;;;;;;;;;5035247;28;20025;-61
2023/06/22 02:40:37;;;;;;;10.10;6.28;;;;;;;;;;5034682;28;20477;-62
2023/06/22 02:43:22;;;;;;;10.40;5.70;;;;;;;;;;5034651;28;20034;-65
2023/06/22 02:46:08;;;;;;;9.10;5.45;;;;;;;;;;5034449;28;20444;-60
2023/06/22 02:48:53;;;;;;;9.38;5.35;;;;;;;;;;5034346;28;20032;-61
2023/06/22 02:51:41;;;;;;;8.98;6.40;;;;;;;;;;5034555;28;20025;-60
2023/06/22 02:54:27;;;;;;;8.30;4.95;;;;;;;;;;5034380;28;20108;-60
2023/06/22 02:57:13;;;;;;;11.32;6.05;;;;;;;;;;5034532;28;20017;-60
2023/06/22 02:59:59;;;;;;;9.05;5.50;;;;;;;;;;5034310;28;20030;-60
2023/06/22 03:02:45;;;;;;;9.02;6.60;;;;;;;;;;5034400;28;20029;-65
2023/06/22 03:05:32;;;;;;;8.75;6.50;;;;;;;;;;5034474;28;20030;-61
2023/06/22 03:08:18;;;;;;;11.95;6.13;;;;;;;;;;5034255;28;20037;-62
2023/06/22 03:11:03;;;;;;;8.20;5.70;;;;;;;;;;5033965;28;20022;-60
2023/06/22 03:13:49;;;;;;;10.40;5.90;;;;;;;;;;5034126;28;20464;-60
2023/06/22 03:16:34;;;;;;;9.95;7.93;;;;;;;;;;5033936;28;20021;-60
2023/06/22 03:19:21;;;;;;;10.18;5.93;;;;;;;;;;5033821;28;20030;-72
2023/06/22 03:22:07;;;;;;;8.07;5.88;;;;;;;;;;5034130;28;20033;-68
2023/06/22 03:24:52;;;;;;;9.77;6.25;;;;;;;;;;5033908;28;20512;-68
2023/06/22 03:27:41;;;;;;;10.10;5.60;;;;;;;;;;5033615;28;20076;-69
2023/06/22 03:30:27;;;;;;;9.60;6.53;;;;;;;;;;5034351;28;20088;-69
2023/06/22 03:33:13;;;;;;;9.45;6.32;;;;;;;;;;5034475;28;20362;-68
2023/06/22 03:35:58;;;;;;;9.43;6.28;;;;;;;;;;5033573;28;20029;-70
2023/06/22 03:38:44;;;;;;;9.45;5.95;;;;;;;;;;5033657;28;20032;-65
2023/06/22 03:41:30;;;;;;;10.55;6.53;;;;;;;;;;5033522;28;20033;-70
2023/06/22 03:44:16;;;;;;;9.65;6.07;;;;;;;;;;5033041;28;20071;-68
2023/06/22 03:47:02;;;;;;;11.40;5.53;;;;;;;;;;5033054;28;20064;-68
2023/06/22 03:49:47;;;;;;;11.35;6.80;;;;;;;;;;5033329;28;20092;-68
2023/06/22 03:52:33;;;;;;;11.52;5.93;;;;;;;;;;5033464;28;20435;-69
2023/06/22 03:55:21;;;;;;;11.13;6.30;;;;;;;;;;5033420;28;20120;-70
2023/06/22 03:58:09;;;;;;;8.57;6.20;;;;;;;;;;5033530;28;20122;-61
2023/06/22 04:00:54;;;;;;;11.13;7.35;;;;;;;;;;5033168;28;20468;-78
2023/06/22 04:03:40;;;;;;;9.38;5.72;;;;;;;;;;5033156;28;20026;-78
2023/06/22 04:06:26;;;;;;;9.63;6.38;;;;;;;;;;5033017;28;20475;-78
2023/06/22 04:09:12;;;;;;;11.38;6.30;;;;;;;;;;5033065;28;20087;-77
2023/06/22 04:11:57;;;;;;;9.65;6.05;;;;;;;;;;5033227;28;20061;-78
2023/06/22 04:14:43;;;;;;;9.05;6.32;;;;;;;;;;5032110;28;20409;-61
2023/06/22 04:17:28;;;;;;;9.88;6.35;;;;;;;;;;5032567;28;20033;-61
2023/06/22 04:20:14;;;;;;;10.30;6.10;;;;;;;;;;5105835;22;20051;-67
2023/06/22 04:22:59;;;;;;;9.10;5.85;;;;;;;;;;5072202;28;20036;-67
2023/06/22 04:25:44;;;;;;;8.70;6.13;;;;;;;;;;5060974;28;20074;-67
2023/06/22 04:28:34;;;;;;;11.43;6.13;;;;;;;;;;5066170;28;20482;-67
2023/06/22 04:31:20;;;;;;;9.35;6.13;;;;;;;;;;5073685;28;20082;-68
2023/06/22 04:34:06;;;;;;;11.10;6.78;;;;;;;;;;5072417;28;20466;-77
2023/06/22 04:36:51;;;;;;;11.43;6.50;;;;;;;;;;5071864;28;20051;-76
2023/06/22 04:39:37;;;;;;;9.98;6.40;;;;;;;;;;5073441;28;20097;-76
2023/06/22 04:42:22;;;;;;;10.88;6.20;;;;;;;;;;5071261;28;20038;-77
2023/06/22 04:45:09;;;;;;;10.27;6.75;;;;;;;;;;5072419;28;20031;-76
2023/06/22 04:47:54;;;;;;;10.77;6.43;;;;;;;;;;5066971;28;20040;-76
2023/06/22 04:50:39;;;;;;;10.07;6.35;;;;;;;;;;5050969;28;20536;-75
2023/06/22 04:53:29;;;;;;;10.70;7.38;;;;;;;;;;5058012;28;20036;-61
2023/06/22 04:56:17;;;;;;;8.68;6.35;;;;;;;;;;5066111;28;20115;-66
2023/06/22 04:59:05;;;;;;;10.93;6.32;;;;;;;;;;5056961;28;20040;-67
2023/06/22 05:01:51;;;;;;;12.30;6.65;;;;;;;;;;5055470;28;20493;-65
2023/06/22 05:04:38;;;;;;;11.77;7.60;;;;;;;;;;5047713;28;20048;-65
2023/06/22 05:07:25;;;;;;;9.50;6.45;;;;;;;;;;5061918;28;20032;-65
2023/06/22 05:10:12;;;;;;;9.40;6.07;;;;;;;;;;5046607;28;20032;-65
2023/06/22 05:12:57;;;;;;;10.77;6.50;;;;;;;;;;5071519;28;20123;-67
2023/06/22 05:15:42;;;;;;;11.55;6.07;;;;;;;;;;5062060;28;20043;-65
2023/06/22 05:18:29;;;;;;;10.30;7.15;;;;;;;;;;5052621;28;20041;-64
2023/06/22 05:21:14;;;;;;;9.38;5.88;;;;;;;;;;5051804;28;20091;-66
2023/06/22 05:24:02;;;;;;;9.57;6.55;;;;;;;;;;5050700;28;20185;-63
2023/06/22 05:26:47;;;;;;;10.50;6.72;;;;;;;;;;5052417;28;20577;-63
2023/06/22 05:29:33;;;;;;;9.00;6.20;;;;;;;;;;5063593;28;20059;-62
2023/06/22 05:32:18;;;;;;;10.13;6.63;;;;;;;;;;5049753;28;20028;-64
2023/06/22 05:35:04;;;;;;;10.43;7.10;;;;;;;;;;5052065;28;20043;-62
2023/06/22 05:37:49;;;;;;;9.10;6.32;;;;;;;;;;5053224;28;20040;-65
2023/06/22 05:40:34;;;;;;;13.70;7.30;;;;;;;;;;5053070;28;20036;-64
2023/06/22 05:43:19;;;;;;;11.15;7.22;;;;;;;;;;5052918;28;20040;-65
2023/06/22 05:46:05;;;;;;;13.60;8.00;;;;;;;;;;5043963;28;20032;-66
2023/06/22 05:48:50;;;;;;;14.20;8.05;;;;;;;;;;5050494;28;20029;-75
2023/06/22 05:51:35;;;;;;;13.27;7.43;;;;;;;;;;5043423;28;20033;-64
2023/06/22 05:54:20;;;;;;;12.30;7.45;;;;;;;;;;5049567;28;20024;-63
2023/06/22 05:57:06;;;;;;;11.38;7.10;;;;;;;;;;5045146;28;20051;-64
2023/06/22 05:59:51;;;;;;;14.05;7.30;;;;;;;;;;5052105;28;20062;-63
2023/06/22 06:02:37;;;;;;;16.25;7.68;;;;;;;;;;5063882;28;20118;-64
2023/06/22 06:05:23;;;;;;;15.55;7.35;;;;;;;;;;5045698;28;20039;-62
2023/06/22 06:08:10;;;;;;;13.07;7.68;;;;;;;;;;5056183;28;20040;-64
2023/06/22 06:10:56;;;;;;;12.80;8.02;;;;;;;;;;5047546;28;20071;-65
2023/06/22 06:13:41;;;;;;;11.85;6.93;;;;;;;;;;5056414;28;20032;-67
2023/06/22 06:16:27;;;;;;;14.00;6.32;;;;;;;;;;5056002;28;20033;-67
2023/06/22 06:19:12;;;;;;;12.18;6.38;;;;;;;;;;5057288;28;20041;-66
2023/06/22 06:21:57;;;;;;;13.52;7.00;;;;;;;;;;5052756;28;20040;-67
2023/06/22 06:24:42;;;;;;;10.27;6.97;;;;;;;;;;5048646;28;20039;-66
2023/06/22 06:27:29;;;;;;;11.90;7.47;;;;;;;;;;5058631;28;20043;-76
2023/06/22 06:30:15;;;;;;;13.23;6.70;;;;;;;;;;5048167;28;20035;-73
2023/06/22 06:33:00;;;;;;;12.15;5.75;;;;;;;;;;5051511;28;20047;-75
2023/06/22 06:35:45;;;;;;;13.73;6.22;;;;;;;;;;5073633;28;20043;-74
2023/06/22 06:38:30;;;;;;;11.25;5.65;;;;;;;;;;5052134;28;20178;-73
2023/06/22 06:41:16;;;;;;;9.48;5.75;;;;;;;;;;5054003;28;20040;-75
2023/06/22 06:44:01;;;;;;;22.05;6.65;;;;;;;;;;5059950;28;20562;-67
2023/06/22 06:46:46;;;;;;;10.80;5.65;;;;;;;;;;5053773;28;20039;-74
2023/06/22 06:49:33;;;;;;;11.57;6.88;;;;;;;;;;5058749;28;20142;-75
2023/06/22 06:52:19;;;;;;;9.40;5.75;;;;;;;;;;5054433;28;20057;-75
2023/06/22 06:55:07;;;;;;;8.38;5.47;;;;;;;;;;5054226;28;20094;-75
2023/06/22 06:57:53;;;;;;;11.57;5.80;;;;;;;;;;5057827;28;20115;-73
2023/06/22 07:00:39;;;;;;;11.35;5.60;;;;;;;;;;5048587;28;20357;-76
2023/06/22 07:03:24;;;;;;;13.63;5.50;;;;;;;;;;5053527;28;20024;-71
2023/06/22 07:06:09;;;;;;;11.63;5.55;;;;;;;;;;5055546;28;20040;-72
2023/06/22 07:08:55;;;;;;;9.85;5.20;;;;;;;;;;5049474;28;20199;-73
2023/06/22 07:11:40;;;;;;;9.23;4.90;;;;;;;;;;5063275;28;20109;-73
2023/06/22 07:14:25;;;;;;;11.35;5.35;;;;;;;;;;5049845;28;20068;-74
2023/06/22 07:17:10;;;;;;;10.35;5.88;;;;;;;;;;5055748;28;20189;-75
2023/06/22 07:19:55;;;;;;;12.40;6.30;;;;;;;;;;5052147;28;20107;-63
2023/06/22 07:22:47;;;;;;;9.93;5.70;;;;;;;;;;5055559;28;20032;-62
2023/06/22 07:25:32;;;;;;;9.50;5.55;;;;;;;;;;5055341;28;20425;-61
2023/06/22 07:28:17;;;;;;;9.18;5.90;;;;;;;;;;5061052;28;20063;-62
2023/06/22 07:31:03;;;;;;;12.35;5.35;;;;;;;;;;5060363;28;20129;-63
2023/06/22 07:33:49;;;;;;;10.48;5.32;;;;;;;;;;5056782;28;20028;-63
2023/06/22 07:36:35;;;;;;;11.05;5.18;;;;;;;;;;5051445;28;20041;-65
2023/06/22 07:39:25;;;;;;;6.80;4.90;;;;;;;;;;5056575;28;20560;-70
2023/06/22 07:42:11;;;;;;;11.32;4.95;;;;;;;;;;5052709;28;20548;-74
2023/06/22 07:44:56;;;;;;;7.10;4.57;;;;;;;;;;5054351;28;20032;-74
2023/06/22 07:47:41;;;;;;;11.50;5.13;;;;;;;;;;5058994;28;20547;-72
2023/06/22 07:50:26;;;;;;;9.23;4.65;;;;;;;;;;5057005;28;20116;-75
2023/06/22 07:53:11;;;;;;;6.13;4.78;;;;;;;;;;5059918;28;20135;-71
2023/06/22 07:56:07;;;;;;;6.85;4.72;;;;;;;;;;5056108;28;20040;-63
2023/06/22 07:58:53;;;;;;;8.45;4.60;;;;;;;;;;5053621;28;20543;-71
2023/06/22 08:01:38;;;;;;;9.60;5.15;;;;;;;;;;5055664;28;20043;-71
2023/06/22 08:04:23;;;;;;;8.90;5.00;;;;;;;;;;5058809;28;20038;-71
2023/06/22 08:07:09;;;;;;;6.32;4.10;;;;;;;;;;5050107;28;20499;-72
2023/06/22 08:09:54;;;;;;;7.05;4.32;;;;;;;;;;5056086;28;20110;-73
2023/06/22 08:12:40;;;;;;;7.35;4.72;;;;;;;;;;5035719;28;20124;-71
2023/06/22 08:15:26;;;;;;;7.43;4.30;;;;;;;;;;5053778;28;20028;-62
2023/06/22 08:18:12;;;;;;;8.10;5.10;;;;;;;;;;5051372;28;20032;-75
2023/06/22 08:20:57;;;;;;;9.13;4.53;;;;;;;;;;5054903;28;20036;-73
2023/06/22 08:23:42;;;;;;;9.02;4.80;;;;;;;;;;5056884;28;20408;-73
2023/06/22 08:26:28;;;;;;;9.68;4.70;;;;;;;;;;5055222;28;20024;-75
2023/06/22 08:29:13;;;;;;;11.38;4.93;;;;;;;;;;5050883;28;20033;-75
2023/06/22 08:31:59;;;;;;;8.52;4.43;;;;;;;;;;5056612;28;20035;-73
2023/06/22 08:34:44;;;;;;;7.82;4.43;;;;;;;;;;5059573;28;20043;-68
2023/06/22 08:37:35;;;;;;;8.90;4.60;;;;;;;;;;5057188;28;20047;-71
2023/06/22 08:40:20;;;;;;;7.55;4.32;;;;;;;;;;5057610;28;20529;-69
2023/06/22 08:43:05;;;;;;;10.43;4.50;;;;;;;;;;5050347;28;20115;-68
2023/06/22 08:45:50;;;;;;;7.22;3.67;;;;;;;;;;5055110;28;20078;-71
2023/06/22 08:48:36;;;;;;;11.52;5.38;;;;;;;;;;5049274;28;20032;-72
2023/06/22 08:51:21;;;;;;;9.60;5.00;;;;;;;;;;5064065;28;20095;-63
2023/06/22 08:54:06;;;;;;;8.68;4.80;;;;;;;;;;5053257;28;20486;-71
2023/06/22 08:56:51;;;;;;;10.15;4.13;;;;;;;;;;5050461;28;20461;-70
2023/06/22 08:59:37;;;;;;;14.32;4.53;;;;;;;;;;5052259;28;20491;-69
2023/06/22 09:02:22;;;;;;;11.02;5.22;;;;;;;;;;5055508;28;20032;-67
2023/06/22 09:05:07;;;;;;;10.60;4.35;;;;;;;;;;5053324;28;20107;-71
2023/06/22 09:07:54;;;;;;;7.97;4.05;;;;;;;;;;5061722;28;20040;-69
2023/06/22 09:10:39;;;;;;;9.15;4.00;;;;;;;;;;5054358;28;20372;-74
2023/06/22 09:13:25;;;;;;;8.73;4.82;;;;;;;;;;5049744;28;20028;-64
2023/06/22 09:16:11;;;;;;;10.43;4.40;;;;;;;;;;5052862;28;20042;-64
2023/06/22 09:18:56;;;;;;;10.30;4.82;;;;;;;;;;5046937;28;20060;-63
2023/06/22 09:21:42;;;;;;;9.55;4.18;;;;;;;;;;5050807;28;20035;-62
2023/06/22 09:24:27;;;;;;;10.60;5.40;;;;;;;;;;5054341;28;20052;-63
2023/06/22 09:27:12;;;;;;;9.75;4.35;;;;;;;;;;5050683;28;20036;-62
2023/06/22 09:29:58;;;;;;;7.05;4.55;;;;;;;;;;5054611;28;20035;-69
2023/06/22 09:32:43;;;;;;;12.73;5.03;;;;;;;;;;5059834;28;20036;-61
2023/06/22 09:35:28;;;;;;;13.65;4.63;;;;;;;;;;5058790;28;20090;-64
2023/06/22 09:38:14;;;;;;;9.10;4.63;;;;;;;;;;5060973;28;20051;-64
2023/06/22 09:40:59;;;;;;;11.40;4.95;;;;;;;;;;5054328;28;20025;-62
2023/06/22 09:43:44;;;;;;;10.90;4.70;;;;;;;;;;5053422;28;20113;-67
2023/06/22 09:46:29;;;;;;;12.82;5.07;;;;;;;;;;5063030;28;20122;-62
2023/06/22 09:49:15;;;;;;;9.40;5.25;;;;;;;;;;5052376;28;20028;-76
2023/06/22 09:52:00;;;;;;;11.80;4.95;;;;;;;;;;5053095;28;20043;-75
2023/06/22 09:54:45;;;;;;;10.48;4.75;;;;;;;;;;5035676;28;20048;-76
2023/06/22 09:57:30;;;;;;;11.80;5.00;;;;;;;;;;5047711;28;20039;-76
2023/06/22 10:00:16;;;;;;;13.20;5.47;;;;;;;;;;5066437;28;20029;-73
2023/06/22 10:03:01;;;;;;;40.92;33.45;;;;;;;;;;5065435;28;20036;-70
2023/06/22 10:05:47;;;;;;;82.57;74.40;;;;;;;;;;5052399;28;20123;-68
2023/06/22 10:08:32;;;;;;;206.27;184.80;;;;;;;;;;5052486;28;20040;-68
2023/06/22 10:11:17;;;;;;;193.43;143.35;;;;;;;;;;5053159;28;20036;-63
2023/06/22 10:14:04;;;;;;;1046.85;674.72;;;;;;;;;;5055794;28;20032;-69
2023/06/22 10:16:49;;;;;;;675.92;522.97;;;;;;;;;;5053384;28;20459;-61
2023/06/22 10:19:37;;;;;;;509.42;386.52;;;;;;;;;;5053838;28;20367;-64
2023/06/22 10:22:22;;;;;;;364.02;257.20;;;;;;;;;;5043997;28;20033;-67
2023/06/22 10:25:07;;;;;;;428.85;301.50;;;;;;;;;;5062741;28;20032;-70
2023/06/22 10:27:53;;;;;;;391.08;267.13;;;;;;;;;;5055609;28;20058;-62
2023/06/22 10:30:41;;;;;;;321.83;217.20;;;;;;;;;;5051707;28;20723;-61
2023/06/22 10:33:26;;;;;;;144.65;100.50;;;;;;;;;;5063668;28;20024;-61
2023/06/22 10:36:11;;;;;;;210.02;137.05;;;;;;;;;;5060162;28;20429;-60
2023/06/22 10:38:59;;;;;;;35.03;21.60;;;;;;;;;;5050893;28;20035;-60
2023/06/22 10:41:44;;;;;;;148.85;94.78;;;;;;;;;;5056814;28;20055;-62
2023/06/22 10:44:29;;;;;;;44.85;26.77;;;;;;;;;;5046493;28;20325;-70
2023/06/22 10:47:14;;;;;;;97.65;61.80;;;;;;;;;;5065855;28;20085;-72
2023/06/22 10:50:00;;;;;;;81.60;52.10;;;;;;;;;;5055743;28;20032;-71
2023/06/22 10:52:45;;;;;;;88.85;56.88;;;;;;;;;;5060873;28;20491;-70
2023/06/22 10:55:31;;;;;;;69.28;46.22;;;;;;;;;;5055849;28;20060;-69
2023/06/22 10:58:17;;;;;;;54.85;35.90;;;;;;;;;;5062930;28;20055;-72
2023/06/22 11:01:03;;;;;;;64.97;42.65;;;;;;;;;;5055005;28;20109;-65
2023/06/22 11:03:48;;;;;;;57.58;36.03;;;;;;;;;;5049772;28;20029;-67
2023/06/22 11:06:33;;;;;;;40.38;26.08;;;;;;;;;;5064905;28;20025;-67
2023/06/22 11:09:21;;;;;;;40.53;26.25;;;;;;;;;;5054130;28;20028;-64
2023/06/22 11:12:06;;;;;;;21.25;13.35;;;;;;;;;;5055694;28;20541;-67
2023/06/22 11:14:51;;;;;;;22.92;14.25;;;;;;;;;;5041401;28;20159;-64
2023/06/22 11:17:36;;;;;;;31.17;18.35;;;;;;;;;;5056447;28;20033;-65
2023/06/22 11:20:22;;;;;;;17.77;10.45;;;;;;;;;;5059578;28;20093;-72
2023/06/22 11:23:07;;;;;;;23.65;13.40;;;;;;;;;;5059436;28;20047;-59
2023/06/22 11:25:52;;;;;;;19.23;11.65;;;;;;;;;;5055271;28;20036;-60
2023/06/22 11:28:37;;;;;;;25.45;10.38;;;;;;;;;;5054765;28;20041;-58
2023/06/22 11:31:22;;;;;;;15.15;7.50;;;;;;;;;;5053705;28;20040;-57
2023/06/22 11:34:08;;;;;;;13.45;8.27;;;;;;;;;;5050586;28;20029;-60
2023/06/22 11:36:53;;;;;;;16.25;9.20;;;;;;;;;;5058102;28;20029;-65
2023/06/22 11:39:38;;;;;;;19.38;9.10;;;;;;;;;;5053993;28;20032;-72
2023/06/22 11:42:23;;;;;;;22.58;8.48;;;;;;;;;;5058457;28;20028;-69
2023/06/22 11:45:09;;;;;;;19.15;7.63;;;;;;;;;;5052641;28;20471;-71
2023/06/22 11:47:54;;;;;;;13.93;7.00;;;;;;;;;;5058946;28;20292;-72
2023/06/22 11:50:39;;;;;;;12.40;5.93;;;;;;;;;;5042744;28;20028;-73
2023/06/22 11:53:25;;;;;;;18.02;7.38;;;;;;;;;;5054853;28;20403;-70
2023/06/22 11:56:10;;;;;;;15.40;7.68;;;;;;;;;;5071072;28;20028;-66
2023/06/22 11:58:56;;;;;;;12.50;7.15;;;;;;;;;;5056465;28;20445;-67
2023/06/22 12:01:41;;;;;;;15.23;6.90;;;;;;;;;;5039330;28;20044;-67
2023/06/22 12:04:26;;;;;;;12.07;7.65;;;;;;;;;;5051561;28;20027;-68
2023/06/22 12:07:12;;;;;;;17.08;6.93;;;;;;;;;;5058314;28;20064;-67
2023/06/22 12:09:57;;;;;;;11.95;6.53;;;;;;;;;;5052793;28;20491;-67
2023/06/22 12:12:42;;;;;;;16.13;7.00;;;;;;;;;;5036608;28;20219;-66
2023/06/22 12:15:27;;;;;;;14.27;6.03;;;;;;;;;;5054609;28;20553;-60
2023/06/22 12:18:14;;;;;;;14.27;7.10;;;;;;;;;;5053362;28;20047;-59
2023/06/22 12:21:00;;;;;;;15.25;7.68;;;;;;;;;;5050343;28;20028;-63
2023/06/22 12:23:45;;;;;;;12.57;6.32;;;;;;;;;;5058273;28;20101;-63
2023/06/22 12:26:30;;;;;;;12.75;6.13;;;;;;;;;;5050011;28;20115;-62
2023/06/22 12:29:15;;;;;;;14.68;5.82;;;;;;;;;;5050874;28;20055;-61
2023/06/22 12:32:00;;;;;;;13.30;6.35;;;;;;;;;;5056244;28;20024;-66
2023/06/22 12:34:46;;;;;;;11.30;6.20;;;;;;;;;;5054967;28;20028;-71
2023/06/22 12:37:31;;;;;;;9.48;5.07;;;;;;;;;;5053961;28;20032;-76
2023/06/22 12:40:17;;;;;;;12.00;5.45;;;;;;;;;;5050630;28;20044;-71
2023/06/22 12:43:02;;;;;;;9.30;5.93;;;;;;;;;;5056066;28;20056;-70
2023/06/22 12:45:47;;;;;;;13.68;6.28;;;;;;;;;;5058259;28;20036;-71
2023/06/22 12:48:32;;;;;;;9.57;6.13;;;;;;;;;;5058498;28;20506;-70
2023/06/22 12:51:24;;;;;;;10.30;5.85;;;;;;;;;;5059752;28;20352;-60
2023/06/22 12:54:09;;;;;;;11.65;5.65;;;;;;;;;;5052227;28;20032;-70
2023/06/22 12:56:55;;;;;;;9.57;5.88;;;;;;;;;;5066931;28;20399;-70
2023/06/22 12:59:40;;;;;;;13.45;5.50;;;;;;;;;;5054550;28;20025;-72
2023/06/22 13:02:26;;;;;;;12.50;5.47;;;;;;;;;;5053762;28;20028;-71
2023/06/22 13:05:11;;;;;;;11.38;5.10;;;;;;;;;;5070716;28;20510;-71
2023/06/22 13:07:56;;;;;;;15.43;5.93;;;;;;;;;;5053950;28;20153;-70
2023/06/22 13:10:41;;;;;;;16.20;6.00;;;;;;;;;;5055593;28;20113;-60
2023/06/22 13:13:27;;;;;;;10.95;5.15;;;;;;;;;;5057364;28;20324;-67
2023/06/22 13:16:12;;;;;;;10.88;5.28;;;;;;;;;;5054934;28;20040;-67
2023/06/22 13:18:57;;;;;;;15.13;5.72;;;;;;;;;;5055871;28;20024;-68
2023/06/22 13:21:42;;;;;;;12.07;6.30;;;;;;;;;;5050861;28;20467;-67
2023/06/22 13:24:28;;;;;;;13.63;5.20;;;;;;;;;;5051590;28;20028;-66
2023/06/22 13:27:13;;;;;;;12.57;5.95;;;;;;;;;;5059559;28;20024;-66
2023/06/22 13:29:58;;;;;;;10.88;6.50;;;;;;;;;;5051768;28;20029;-65
2023/06/22 13:32:43;;;;;;;9.75;5.72;;;;;;;;;;5068177;28;20033;-65
2023/06/22 13:35:29;;;;;;;12.07;5.85;;;;;;;;;;5051879;28;20078;-65
2023/06/22 13:38:14;;;;;;;10.80;5.78;;;;;;;;;;5053591;28;20062;-64
2023/06/22 13:40:59;;;;;;;11.07;5.25;;;;;;;;;;5053488;28;20038;-67
2023/06/22 13:43:44;;;;;;;13.77;6.20;;;;;;;;;;5067721;28;21642;-66
2023/06/22 13:46:30;;;;;;;11.80;6.18;;;;;;;;;;5051242;28;20040;-65
2023/06/22 13:49:15;;;;;;;19.08;5.93;;;;;;;;;;5055167;28;20028;-73
2023/06/22 13:52:00;;;;;;;11.32;5.18;;;;;;;;;;5052783;28;20499;-71
2023/06/22 13:54:45;;;;;;;12.57;5.93;;;;;;;;;;5057001;28;20567;-72
2023/06/22 13:57:30;;;;;;;9.90;5.07;;;;;;;;;;5055656;28;20029;-70
2023/06/22 14:00:16;;;;;;;13.60;6.47;;;;;;;;;;5047603;28;20040;-71
2023/06/22 14:03:01;;;;;;;13.20;5.57;;;;;;;;;;5063319;28;20581;-69
2023/06/22 14:05:47;;;;;;;11.35;5.32;;;;;;;;;;5039405;28;20038;-67
2023/06/22 14:08:32;;;;;;;15.75;5.88;;;;;;;;;;5053520;28;20028;-62
2023/06/22 14:11:17;;;;;;;11.48;5.60;;;;;;;;;;5046990;28;20032;-63
2023/06/22 14:14:02;;;;;;;13.70;5.88;;;;;;;;;;5052247;28;20037;-68
2023/06/22 14:16:49;;;;;;;15.10;5.97;;;;;;;;;;5045739;28;20090;-69
2023/06/22 14:19:34;;;;;;;14.20;5.43;;;;;;;;;;5045400;28;20071;-70
2023/06/22 14:22:20;;;;;;;12.75;5.50;;;;;;;;;;5050266;28;20055;-65
2023/06/22 14:25:05;;;;;;;11.35;4.88;;;;;;;;;;5044024;28;20028;-64
2023/06/22 14:27:50;;;;;;;14.30;5.50;;;;;;;;;;5052761;28;20119;-65
2023/06/22 14:30:36;;;;;;;10.18;5.40;;;;;;;;;;5049142;28;20132;-65
2023/06/22 14:33:21;;;;;;;11.05;4.97;;;;;;;;;;5051065;28;20025;-65
2023/06/22 14:36:06;;;;;;;13.23;5.30;;;;;;;;;;5056507;28;20041;-65
2023/06/22 14:38:51;;;;;;;15.75;5.70;;;;;;;;;;5057387;28;20063;-66
2023/06/22 14:41:36;;;;;;;10.65;4.75;;;;;;;;;;5057454;28;20033;-76
2023/06/22 14:44:22;;;;;;;12.30;5.03;;;;;;;;;;5057032;28;20024;-70
2023/06/22 14:47:07;;;;;;;13.80;4.68;;;;;;;;;;5055684;28;20029;-70
2023/06/22 14:49:52;;;;;;;12.00;3.63;;;;;;;;;;5055651;28;20501;-69
2023/06/22 14:52:37;;;;;;;15.05;3.92;;;;;;;;;;5054312;28;20112;-71
2023/06/22 14:55:23;;;;;;;11.63;3.97;;;;;;;;;;5050552;28;20094;-70
2023/06/22 14:58:09;;;;;;;13.25;3.40;;;;;;;;;;5055354;28;20035;-69
2023/06/22 15:00:55;;;;;;;11.20;3.72;;;;;;;;;;5054300;28;20044;-76
2023/06/22 15:03:40;;;;;;;11.35;4.10;;;;;;;;;;5055350;28;20486;-75
2023/06/22 15:06:26;;;;;;;16.35;4.50;;;;;;;;;;5055983;28;20044;-76
2023/06/22 15:09:12;;;;;;;17.35;3.60;;;;;;;;;;5067970;28;20110;-75
2023/06/22 15:11:57;;;;;;;17.10;5.05;;;;;;;;;;5056608;28;20052;-75
2023/06/22 15:14:42;;;;;;;12.20;3.42;;;;;;;;;;5056539;28;20086;-76
2023/06/22 15:17:30;;;;;;;12.20;3.38;;;;;;;;;;5053449;28;20028;-72
2023/06/22 15:20:15;;;;;;;13.05;4.10;;;;;;;;;;5056286;28;20123;-67
2023/06/22 15:23:00;;;;;;;11.57;4.43;;;;;;;;;;5056685;28;20029;-67
2023/06/22 15:25:46;;;;;;;14.57;4.60;;;;;;;;;;5042428;28;20115;-67
2023/06/22 15:28:32;;;;;;;12.77;4.25;;;;;;;;;;5061614;28;20353;-67
2023/06/22 15:31:17;;;;;;;12.55;3.58;;;;;;;;;;5055421;28;20626;-66
2023/06/22 15:34:03;;;;;;;16.95;4.82;;;;;;;;;;5056113;28;20072;-65
2023/06/22 15:36:49;;;;;;;12.43;3.78;;;;;;;;;;5056239;28;20116;-67
2023/06/22 15:39:34;;;;;;;17.17;4.72;;;;;;;;;;5054458;28;20123;-67
2023/06/22 15:42:19;;;;;;;13.68;3.67;;;;;;;;;;5052179;28;20059;-68
2023/06/22 15:45:04;;;;;;;9.73;3.85;;;;;;;;;;5055826;28;20036;-67
2023/06/22 15:47:50;;;;;;;11.88;3.40;;;;;;;;;;5054506;28;20128;-67
2023/06/22 15:50:35;;;;;;;9.95;3.47;;;;;;;;;;5055658;28;20115;-67
2023/06/22 15:53:20;;;;;;;12.85;4.30;;;;;;;;;;5055970;28;20151;-67
2023/06/22 15:56:09;;;;;;;13.38;4.60;;;;;;;;;;5060939;28;20063;-68
2023/06/22 15:58:56;;;;;;;12.07;4.25;;;;;;;;;;5062638;28;20487;-70
2023/06/22 16:01:42;;;;;;;11.48;4.03;;;;;;;;;;5053947;28;20043;-70
2023/06/22 16:04:27;;;;;;;10.52;4.00;;;;;;;;;;5055639;28;20050;-70
2023/06/22 16:07:13;;;;;;;13.02;3.90;;;;;;;;;;5054717;28;20032;-69
2023/06/22 16:09:58;;;;;;;10.60;4.03;;;;;;;;;;5055435;28;20037;-71
2023/06/22 16:12:44;;;;;;;10.13;3.63;;;;;;;;;;5055103;28;20486;-68
2023/06/22 16:15:29;;;;;;;9.38;3.83;;;;;;;;;;5055247;28;20024;-68
2023/06/22 16:18:15;;;;;;;15.10;4.22;;;;;;;;;;5053259;28;20032;-68
2023/06/22 16:21:01;;;;;;;13.00;3.80;;;;;;;;;;5055012;28;20030;-69